sensor_id;sensor_type;location;lat;lon;timestamp;temperature;humidity
6357;DHT22;3211;53.452;-2.264;2022-09-16T00:01:26;12.50;99.90
6357;DHT22;3211;53.452;-2.264;2022-09-16T00:04:08;12.50;99.90
6357;DHT22;3211;53.452;-2.264;2022-09-16T00:06:51;12.60;99.90
6357;DHT22;3211;53.452;-2.264;2022-09-16T00:09:33;12.60;99.90
6357;DHT22;3211;53.452;-2.264;2022-09-16T00:12:15;12.60;99.90
6357;DHT22;3211;53.452;-2.264;2022-09-16T00:14:57;12.60;99.90
6357;DHT22;3211;53.452;-2.264;2022-09-16T00:17:41;12.60;99.90
6357;DHT22;3211;53.452;-2.264;2022-09-16T00:20:23;12.70;99.90
6357;DHT22;3211;53.452;-2.264;2022-09-16T00:23:06;12.80;99.90
6357;DHT22;3211;53.452;-2.264;2022-09-16T00:25:51;12.70;99.90
6357;DHT22;3211;53.452;-2.264;2022-09-16T00:28:33;12.80;99.90
6357;DHT22;3211;53.452;-2.264;2022-09-16T00:31:16;12.80;99.90
6357;DHT22;3211;53.452;-2.264;2022-09-16T00:34:00;12.70;99.90
6357;DHT22;3211;53.452;-2.264;2022-09-16T00:36:42;12.80;99.90
6357;DHT22;3211;53.452;-2.264;2022-09-16T00:39:24;12.80;99.90
6357;DHT22;3211;53.452;-2.264;2022-09-16T00:42:08;12.80;99.90
6357;DHT22;3211;53.452;-2.264;2022-09-16T00:44:57;12.70;99.90
6357;DHT22;3211;53.452;-2.264;2022-09-16T00:47:42;12.60;99.90
6357;DHT22;3211;53.452;-2.264;2022-09-16T00:50:31;12.60;99.90
6357;DHT22;3211;53.452;-2.264;2022-09-16T00:53:19;12.70;99.90
6357;DHT22;3211;53.452;-2.264;2022-09-16T00:56:04;12.60;99.90
6357;DHT22;3211;53.452;-2.264;2022-09-16T00:58:50;12.70;99.90
6357;DHT22;3211;53.452;-2.264;2022-09-16T01:01:33;12.50;99.90
6357;DHT22;3211;53.452;-2.264;2022-09-16T01:04:18;12.40;99.90
6357;DHT22;3211;53.452;-2.264;2022-09-16T01:07:04;12.30;99.90
6357;DHT22;3211;53.452;-2.264;2022-09-16T01:09:46;12.20;99.90
6357;DHT22;3211;53.452;-2.264;2022-09-16T01:12:30;12.10;99.90
6357;DHT22;3211;53.452;-2.264;2022-09-16T01:15:14;12.10;99.90
6357;DHT22;3211;53.452;-2.264;2022-09-16T01:18:06;11.90;99.90
6357;DHT22;3211;53.452;-2.264;2022-09-16T01:21:19;11.90;99.90
6357;DHT22;3211;53.452;-2.264;2022-09-16T01:24:33;11.70;99.90
6357;DHT22;3211;53.452;-2.264;2022-09-16T01:27:49;11.70;99.90
6357;DHT22;3211;53.452;-2.264;2022-09-16T01:30:43;11.60;99.90
6357;DHT22;3211;53.452;-2.264;2022-09-16T01:33:35;11.60;99.90
6357;DHT22;3211;53.452;-2.264;2022-09-16T01:36:34;11.50;99.90
6357;DHT22;3211;53.452;-2.264;2022-09-16T01:39:27;11.60;99.90
6357;DHT22;3211;53.452;-2.264;2022-09-16T01:42:19;11.70;99.90
6357;DHT22;3211;53.452;-2.264;2022-09-16T01:45:10;11.60;99.90
6357;DHT22;3211;53.452;-2.264;2022-09-16T01:48:03;11.50;99.90
6357;DHT22;3211;53.452;-2.264;2022-09-16T01:50:51;11.50;99.90
6357;DHT22;3211;53.452;-2.264;2022-09-16T01:53:37;11.50;99.90
6357;DHT22;3211;53.452;-2.264;2022-09-16T01:56:23;11.60;99.90
6357;DHT22;3211;53.452;-2.264;2022-09-16T01:59:08;11.60;99.90
6357;DHT22;3211;53.452;-2.264;2022-09-16T02:01:54;11.60;99.90
6357;DHT22;3211;53.452;-2.264;2022-09-16T02:04:45;11.70;99.90
6357;DHT22;3211;53.452;-2.264;2022-09-16T02:07:32;11.80;99.90
6357;DHT22;3211;53.452;-2.264;2022-09-16T02:10:20;11.80;99.90
6357;DHT22;3211;53.452;-2.264;2022-09-16T02:13:11;11.80;99.90
6357;DHT22;3211;53.452;-2.264;2022-09-16T02:15:59;11.80;99.90
6357;DHT22;3211;53.452;-2.264;2022-09-16T02:18:45;11.80;99.90
6357;DHT22;3211;53.452;-2.264;2022-09-16T02:21:33;11.80;99.90
6357;DHT22;3211;53.452;-2.264;2022-09-16T02:24:18;11.90;99.90
6357;DHT22;3211;53.452;-2.264;2022-09-16T02:27:04;11.90;99.90
6357;DHT22;3211;53.452;-2.264;2022-09-16T02:29:51;12.00;99.90
6357;DHT22;3211;53.452;-2.264;2022-09-16T02:32:36;11.90;99.90
6357;DHT22;3211;53.452;-2.264;2022-09-16T02:35:20;11.90;99.90
6357;DHT22;3211;53.452;-2.264;2022-09-16T02:38:09;11.80;99.90
6357;DHT22;3211;53.452;-2.264;2022-09-16T02:40:54;11.80;99.90
6357;DHT22;3211;53.452;-2.264;2022-09-16T02:43:36;11.70;99.90
6357;DHT22;3211;53.452;-2.264;2022-09-16T02:46:24;11.70;99.90
6357;DHT22;3211;53.452;-2.264;2022-09-16T02:49:12;11.60;99.90
6357;DHT22;3211;53.452;-2.264;2022-09-16T02:52:03;11.60;99.90
6357;DHT22;3211;53.452;-2.264;2022-09-16T02:54:53;11.50;99.90
6357;DHT22;3211;53.452;-2.264;2022-09-16T02:57:36;11.50;99.90
6357;DHT22;3211;53.452;-2.264;2022-09-16T03:00:18;11.50;99.90
6357;DHT22;3211;53.452;-2.264;2022-09-16T03:03:00;11.40;99.90
6357;DHT22;3211;53.452;-2.264;2022-09-16T03:06:20;11.30;99.90
6357;DHT22;3211;53.452;-2.264;2022-09-16T03:09:04;11.30;99.90
6357;DHT22;3211;53.452;-2.264;2022-09-16T03:12:18;11.30;99.90
6357;DHT22;3211;53.452;-2.264;2022-09-16T03:15:16;11.20;99.90
6357;DHT22;3211;53.452;-2.264;2022-09-16T03:21:16;11.10;99.90
6357;DHT22;3211;53.452;-2.264;2022-09-16T03:24:08;11.00;99.90
6357;DHT22;3211;53.452;-2.264;2022-09-16T03:26:57;10.90;99.90
6357;DHT22;3211;53.452;-2.264;2022-09-16T03:29:45;10.90;99.90
6357;DHT22;3211;53.452;-2.264;2022-09-16T03:32:31;10.70;99.90
6357;DHT22;3211;53.452;-2.264;2022-09-16T03:35:18;10.70;99.90
6357;DHT22;3211;53.452;-2.264;2022-09-16T03:38:03;10.70;99.90
6357;DHT22;3211;53.452;-2.264;2022-09-16T03:40:47;10.70;99.90
6357;DHT22;3211;53.452;-2.264;2022-09-16T03:43:30;10.80;99.90
6357;DHT22;3211;53.452;-2.264;2022-09-16T03:46:13;10.80;99.90
6357;DHT22;3211;53.452;-2.264;2022-09-16T03:48:56;11.00;99.90
6357;DHT22;3211;53.452;-2.264;2022-09-16T03:51:38;11.10;99.90
6357;DHT22;3211;53.452;-2.264;2022-09-16T03:54:20;11.10;99.90
6357;DHT22;3211;53.452;-2.264;2022-09-16T03:57:02;11.00;99.90
6357;DHT22;3211;53.452;-2.264;2022-09-16T03:59:44;11.10;99.90
6357;DHT22;3211;53.452;-2.264;2022-09-16T04:02:28;11.10;99.90
6357;DHT22;3211;53.452;-2.264;2022-09-16T04:05:10;11.10;99.90
6357;DHT22;3211;53.452;-2.264;2022-09-16T04:07:52;11.10;99.90
6357;DHT22;3211;53.452;-2.264;2022-09-16T04:10:34;11.00;99.90
6357;DHT22;3211;53.452;-2.264;2022-09-16T04:13:16;11.00;99.90
6357;DHT22;3211;53.452;-2.264;2022-09-16T04:15:58;11.00;99.90
6357;DHT22;3211;53.452;-2.264;2022-09-16T04:18:41;11.00;99.90
6357;DHT22;3211;53.452;-2.264;2022-09-16T04:21:23;11.00;99.90
6357;DHT22;3211;53.452;-2.264;2022-09-16T04:24:06;11.10;99.90
6357;DHT22;3211;53.452;-2.264;2022-09-16T04:26:48;11.10;99.90
6357;DHT22;3211;53.452;-2.264;2022-09-16T04:29:29;11.20;99.90
6357;DHT22;3211;53.452;-2.264;2022-09-16T04:32:12;11.20;99.90
6357;DHT22;3211;53.452;-2.264;2022-09-16T04:34:55;11.30;99.90
6357;DHT22;3211;53.452;-2.264;2022-09-16T04:37:37;11.40;99.90
6357;DHT22;3211;53.452;-2.264;2022-09-16T04:40:19;11.20;99.90
6357;DHT22;3211;53.452;-2.264;2022-09-16T04:43:01;11.20;99.90
6357;DHT22;3211;53.452;-2.264;2022-09-16T04:45:43;11.20;99.90
6357;DHT22;3211;53.452;-2.264;2022-09-16T04:48:25;11.30;99.90
6357;DHT22;3211;53.452;-2.264;2022-09-16T04:51:10;11.30;99.90
6357;DHT22;3211;53.452;-2.264;2022-09-16T04:53:53;11.30;99.90
6357;DHT22;3211;53.452;-2.264;2022-09-16T04:56:36;11.30;99.90
6357;DHT22;3211;53.452;-2.264;2022-09-16T04:59:18;11.20;99.90
6357;DHT22;3211;53.452;-2.264;2022-09-16T05:02:00;11.20;99.90
6357;DHT22;3211;53.452;-2.264;2022-09-16T05:04:42;11.20;99.90
6357;DHT22;3211;53.452;-2.264;2022-09-16T05:07:26;11.20;99.90
6357;DHT22;3211;53.452;-2.264;2022-09-16T05:10:09;11.10;99.90
6357;DHT22;3211;53.452;-2.264;2022-09-16T05:12:51;11.10;99.90
6357;DHT22;3211;53.452;-2.264;2022-09-16T05:15:33;11.10;99.90
6357;DHT22;3211;53.452;-2.264;2022-09-16T05:18:15;11.10;99.90
6357;DHT22;3211;53.452;-2.264;2022-09-16T05:20:58;11.00;99.90
6357;DHT22;3211;53.452;-2.264;2022-09-16T05:23:42;11.00;99.90
6357;DHT22;3211;53.452;-2.264;2022-09-16T05:26:26;11.00;99.90
6357;DHT22;3211;53.452;-2.264;2022-09-16T05:29:11;10.90;99.90
6357;DHT22;3211;53.452;-2.264;2022-09-16T05:31:56;10.80;99.90
6357;DHT22;3211;53.452;-2.264;2022-09-16T05:34:42;10.70;99.90
6357;DHT22;3211;53.452;-2.264;2022-09-16T05:37:25;10.70;99.90
6357;DHT22;3211;53.452;-2.264;2022-09-16T05:40:09;10.60;99.90
6357;DHT22;3211;53.452;-2.264;2022-09-16T05:42:51;10.60;99.90
6357;DHT22;3211;53.452;-2.264;2022-09-16T05:45:33;10.50;99.90
6357;DHT22;3211;53.452;-2.264;2022-09-16T05:48:15;10.40;99.90
6357;DHT22;3211;53.452;-2.264;2022-09-16T05:50:58;10.40;99.90
6357;DHT22;3211;53.452;-2.264;2022-09-16T05:53:40;10.30;99.90
6357;DHT22;3211;53.452;-2.264;2022-09-16T05:56:25;10.30;99.90
6357;DHT22;3211;53.452;-2.264;2022-09-16T05:59:10;10.30;99.90
6357;DHT22;3211;53.452;-2.264;2022-09-16T06:01:52;10.20;99.90
6357;DHT22;3211;53.452;-2.264;2022-09-16T06:04:34;10.20;99.90
6357;DHT22;3211;53.452;-2.264;2022-09-16T06:07:16;10.30;99.90
6357;DHT22;3211;53.452;-2.264;2022-09-16T06:09:58;10.20;99.90
6357;DHT22;3211;53.452;-2.264;2022-09-16T06:12:42;10.30;99.90
6357;DHT22;3211;53.452;-2.264;2022-09-16T06:15:24;10.30;99.90
6357;DHT22;3211;53.452;-2.264;2022-09-16T06:18:06;10.40;99.90
6357;DHT22;3211;53.452;-2.264;2022-09-16T06:20:48;10.40;99.90
6357;DHT22;3211;53.452;-2.264;2022-09-16T06:23:31;10.30;99.90
6357;DHT22;3211;53.452;-2.264;2022-09-16T06:26:15;10.40;99.90
6357;DHT22;3211;53.452;-2.264;2022-09-16T06:28:59;10.30;99.90
6357;DHT22;3211;53.452;-2.264;2022-09-16T06:31:41;10.30;99.90
6357;DHT22;3211;53.452;-2.264;2022-09-16T06:34:23;10.30;99.90
6357;DHT22;3211;53.452;-2.264;2022-09-16T06:37:06;10.40;99.90
6357;DHT22;3211;53.452;-2.264;2022-09-16T06:39:52;10.50;99.90
6357;DHT22;3211;53.452;-2.264;2022-09-16T06:42:34;10.50;99.90
6357;DHT22;3211;53.452;-2.264;2022-09-16T06:45:17;10.60;99.90
6357;DHT22;3211;53.452;-2.264;2022-09-16T06:47:59;10.70;99.90
6357;DHT22;3211;53.452;-2.264;2022-09-16T06:50:41;10.70;99.90
6357;DHT22;3211;53.452;-2.264;2022-09-16T06:53:23;11.00;99.90
6357;DHT22;3211;53.452;-2.264;2022-09-16T06:56:07;11.00;99.90
6357;DHT22;3211;53.452;-2.264;2022-09-16T06:58:51;11.00;99.90
6357;DHT22;3211;53.452;-2.264;2022-09-16T07:01:36;11.10;99.90
6357;DHT22;3211;53.452;-2.264;2022-09-16T07:04:19;11.10;99.90
6357;DHT22;3211;53.452;-2.264;2022-09-16T07:07:01;11.10;99.90
6357;DHT22;3211;53.452;-2.264;2022-09-16T07:09:43;11.20;99.90
6357;DHT22;3211;53.452;-2.264;2022-09-16T07:12:27;11.20;99.90
6357;DHT22;3211;53.452;-2.264;2022-09-16T07:15:10;11.30;99.90
6357;DHT22;3211;53.452;-2.264;2022-09-16T07:17:54;11.30;99.90
6357;DHT22;3211;53.452;-2.264;2022-09-16T07:20:36;11.30;99.90
6357;DHT22;3211;53.452;-2.264;2022-09-16T07:23:18;11.40;99.90
6357;DHT22;3211;53.452;-2.264;2022-09-16T07:26:01;11.50;99.90
6357;DHT22;3211;53.452;-2.264;2022-09-16T07:28:45;11.50;99.90
6357;DHT22;3211;53.452;-2.264;2022-09-16T07:31:29;11.50;99.90
6357;DHT22;3211;53.452;-2.264;2022-09-16T07:34:12;11.50;99.90
6357;DHT22;3211;53.452;-2.264;2022-09-16T07:36:54;11.60;99.90
6357;DHT22;3211;53.452;-2.264;2022-09-16T07:39:37;11.60;99.90
6357;DHT22;3211;53.452;-2.264;2022-09-16T07:42:19;11.60;99.90
6357;DHT22;3211;53.452;-2.264;2022-09-16T07:45:01;11.50;99.90
6357;DHT22;3211;53.452;-2.264;2022-09-16T07:47:48;11.50;99.90
6357;DHT22;3211;53.452;-2.264;2022-09-16T07:50:31;11.60;99.90
6357;DHT22;3211;53.452;-2.264;2022-09-16T07:53:13;11.70;99.90
6357;DHT22;3211;53.452;-2.264;2022-09-16T07:55:55;11.50;99.90
6357;DHT22;3211;53.452;-2.264;2022-09-16T07:58:38;11.70;99.90
6357;DHT22;3211;53.452;-2.264;2022-09-16T08:01:20;11.70;99.90
6357;DHT22;3211;53.452;-2.264;2022-09-16T08:04:03;11.80;99.90
6357;DHT22;3211;53.452;-2.264;2022-09-16T08:06:46;11.90;99.90
6357;DHT22;3211;53.452;-2.264;2022-09-16T08:09:28;12.00;99.90
6357;DHT22;3211;53.452;-2.264;2022-09-16T08:12:10;11.90;99.90
6357;DHT22;3211;53.452;-2.264;2022-09-16T08:14:54;12.10;99.90
6357;DHT22;3211;53.452;-2.264;2022-09-16T08:17:36;12.20;99.90
6357;DHT22;3211;53.452;-2.264;2022-09-16T08:20:18;12.30;99.90
6357;DHT22;3211;53.452;-2.264;2022-09-16T08:23:01;12.30;99.90
6357;DHT22;3211;53.452;-2.264;2022-09-16T08:25:43;12.30;99.90
6357;DHT22;3211;53.452;-2.264;2022-09-16T08:28:27;12.30;99.90
6357;DHT22;3211;53.452;-2.264;2022-09-16T08:31:09;12.30;99.90
6357;DHT22;3211;53.452;-2.264;2022-09-16T08:33:51;12.30;99.90
6357;DHT22;3211;53.452;-2.264;2022-09-16T08:36:33;12.40;99.90
6357;DHT22;3211;53.452;-2.264;2022-09-16T08:39:17;12.50;99.90
6357;DHT22;3211;53.452;-2.264;2022-09-16T08:42:08;12.40;99.90
6357;DHT22;3211;53.452;-2.264;2022-09-16T08:45:06;12.50;99.90
6357;DHT22;3211;53.452;-2.264;2022-09-16T08:48:04;12.50;99.90
6357;DHT22;3211;53.452;-2.264;2022-09-16T08:50:48;12.70;99.90
6357;DHT22;3211;53.452;-2.264;2022-09-16T08:53:36;12.80;99.90
6357;DHT22;3211;53.452;-2.264;2022-09-16T08:56:21;13.00;99.90
6357;DHT22;3211;53.452;-2.264;2022-09-16T08:59:22;13.10;99.90
6357;DHT22;3211;53.452;-2.264;2022-09-16T09:02:27;13.00;99.90
6357;DHT22;3211;53.452;-2.264;2022-09-16T09:05:19;13.10;99.90
6357;DHT22;3211;53.452;-2.264;2022-09-16T09:08:15;13.10;99.90
6357;DHT22;3211;53.452;-2.264;2022-09-16T09:11:03;13.10;99.90
6357;DHT22;3211;53.452;-2.264;2022-09-16T09:13:59;13.30;99.90
6357;DHT22;3211;53.452;-2.264;2022-09-16T09:16:51;13.40;99.90
6357;DHT22;3211;53.452;-2.264;2022-09-16T09:19:45;13.50;99.90
6357;DHT22;3211;53.452;-2.264;2022-09-16T09:22:43;13.60;99.90
6357;DHT22;3211;53.452;-2.264;2022-09-16T09:25:33;13.50;99.90
6357;DHT22;3211;53.452;-2.264;2022-09-16T09:31:45;13.70;99.90
6357;DHT22;3211;53.452;-2.264;2022-09-16T09:34:42;13.80;99.90
6357;DHT22;3211;53.452;-2.264;2022-09-16T09:37:43;14.00;99.90
6357;DHT22;3211;53.452;-2.264;2022-09-16T09:40:31;14.10;99.90
6357;DHT22;3211;53.452;-2.264;2022-09-16T09:43:18;14.20;99.90
6357;DHT22;3211;53.452;-2.264;2022-09-16T09:46:04;14.20;99.90
6357;DHT22;3211;53.452;-2.264;2022-09-16T09:48:50;14.50;99.90
6357;DHT22;3211;53.452;-2.264;2022-09-16T09:51:36;14.70;99.90
6357;DHT22;3211;53.452;-2.264;2022-09-16T09:54:25;14.30;99.30
6357;DHT22;3211;53.452;-2.264;2022-09-16T09:57:15;14.40;99.90
6357;DHT22;3211;53.452;-2.264;2022-09-16T10:00:02;14.70;99.90
6357;DHT22;3211;53.452;-2.264;2022-09-16T10:02:47;14.90;99.90
6357;DHT22;3211;53.452;-2.264;2022-09-16T10:05:31;14.80;99.50
6357;DHT22;3211;53.452;-2.264;2022-09-16T10:08:18;14.60;99.50
6357;DHT22;3211;53.452;-2.264;2022-09-16T10:11:14;14.80;99.00
6357;DHT22;3211;53.452;-2.264;2022-09-16T10:13:58;14.90;99.00
6357;DHT22;3211;53.452;-2.264;2022-09-16T10:16:44;15.10;99.10
6357;DHT22;3211;53.452;-2.264;2022-09-16T10:19:29;15.10;98.90
6357;DHT22;3211;53.452;-2.264;2022-09-16T10:22:20;15.40;99.40
6357;DHT22;3211;53.452;-2.264;2022-09-16T10:25:04;15.00;98.60
6357;DHT22;3211;53.452;-2.264;2022-09-16T10:27:54;14.90;98.90
6357;DHT22;3211;53.452;-2.264;2022-09-16T10:30:44;14.70;99.30
6357;DHT22;3211;53.452;-2.264;2022-09-16T10:33:30;14.60;98.60
6357;DHT22;3211;53.452;-2.264;2022-09-16T10:36:19;14.50;98.10
6357;DHT22;3211;53.452;-2.264;2022-09-16T10:39:03;14.50;99.40
6357;DHT22;3211;53.452;-2.264;2022-09-16T10:41:45;14.90;98.60
6357;DHT22;3211;53.452;-2.264;2022-09-16T10:44:29;15.20;98.10
6357;DHT22;3211;53.452;-2.264;2022-09-16T10:47:18;15.30;97.60
6357;DHT22;3211;53.452;-2.264;2022-09-16T10:50:04;15.50;97.70
6357;DHT22;3211;53.452;-2.264;2022-09-16T10:52:47;15.50;98.20
6357;DHT22;3211;53.452;-2.264;2022-09-16T10:55:32;15.80;98.00
6357;DHT22;3211;53.452;-2.264;2022-09-16T10:58:17;16.00;97.20
6357;DHT22;3211;53.452;-2.264;2022-09-16T11:01:21;16.00;97.60
6357;DHT22;3211;53.452;-2.264;2022-09-16T11:04:37;16.40;97.30
6357;DHT22;3211;53.452;-2.264;2022-09-16T11:07:30;16.90;96.10
6357;DHT22;3211;53.452;-2.264;2022-09-16T11:10:18;17.20;95.50
6357;DHT22;3211;53.452;-2.264;2022-09-16T11:13:22;17.00;94.60
6357;DHT22;3211;53.452;-2.264;2022-09-16T11:16:29;17.10;94.40
6357;DHT22;3211;53.452;-2.264;2022-09-16T11:19:28;17.10;95.00
6357;DHT22;3211;53.452;-2.264;2022-09-16T11:22:20;17.10;94.00
6357;DHT22;3211;53.452;-2.264;2022-09-16T11:25:32;17.00;94.80
6357;DHT22;3211;53.452;-2.264;2022-09-16T11:28:36;16.80;94.40
6357;DHT22;3211;53.452;-2.264;2022-09-16T11:31:30;16.70;95.00
6357;DHT22;3211;53.452;-2.264;2022-09-16T11:34:23;16.50;94.50
6357;DHT22;3211;53.452;-2.264;2022-09-16T11:37:16;17.20;95.30
6357;DHT22;3211;53.452;-2.264;2022-09-16T11:40:14;17.00;94.00
6357;DHT22;3211;53.452;-2.264;2022-09-16T11:43:12;16.60;95.00
6357;DHT22;3211;53.452;-2.264;2022-09-16T11:46:06;16.80;94.90
6357;DHT22;3211;53.452;-2.264;2022-09-16T11:49:04;16.80;94.80
6357;DHT22;3211;53.452;-2.264;2022-09-16T11:51:59;16.80;95.90
6357;DHT22;3211;53.452;-2.264;2022-09-16T11:54:54;17.00;94.80
6357;DHT22;3211;53.452;-2.264;2022-09-16T11:57:43;17.40;93.90
6357;DHT22;3211;53.452;-2.264;2022-09-16T12:00:28;17.10;93.00
6357;DHT22;3211;53.452;-2.264;2022-09-16T12:03:21;17.00;93.10
6357;DHT22;3211;53.452;-2.264;2022-09-16T12:06:07;17.00;94.40
6357;DHT22;3211;53.452;-2.264;2022-09-16T12:08:56;17.10;93.80
6357;DHT22;3211;53.452;-2.264;2022-09-16T12:11:43;17.90;93.90
6357;DHT22;3211;53.452;-2.264;2022-09-16T12:14:30;18.10;92.70
6357;DHT22;3211;53.452;-2.264;2022-09-16T12:17:18;18.00;92.50
6357;DHT22;3211;53.452;-2.264;2022-09-16T12:20:08;18.40;93.40
6357;DHT22;3211;53.452;-2.264;2022-09-16T12:23:00;18.40;92.40
6357;DHT22;3211;53.452;-2.264;2022-09-16T12:25:45;18.30;92.50
6357;DHT22;3211;53.452;-2.264;2022-09-16T12:28:31;17.60;92.60
6357;DHT22;3211;53.452;-2.264;2022-09-16T12:31:17;17.20;92.80
6357;DHT22;3211;53.452;-2.264;2022-09-16T12:34:04;17.50;93.10
6357;DHT22;3211;53.452;-2.264;2022-09-16T12:36:58;17.20;93.60
6357;DHT22;3211;53.452;-2.264;2022-09-16T12:39:41;16.70;93.50
6357;DHT22;3211;53.452;-2.264;2022-09-16T12:42:49;16.50;93.80
6357;DHT22;3211;53.452;-2.264;2022-09-16T12:52:26;18.60;93.90
6357;DHT22;3211;53.452;-2.264;2022-09-16T12:59:04;17.90;92.30
6357;DHT22;3211;53.452;-2.264;2022-09-16T13:01:49;17.70;92.60
6357;DHT22;3211;53.452;-2.264;2022-09-16T13:04:37;17.30;93.50
6357;DHT22;3211;53.452;-2.264;2022-09-16T13:07:23;18.00;92.90
6357;DHT22;3211;53.452;-2.264;2022-09-16T13:10:13;18.30;93.20
6357;DHT22;3211;53.452;-2.264;2022-09-16T13:12:59;18.60;92.20
6357;DHT22;3211;53.452;-2.264;2022-09-16T13:15:42;19.00;92.30
6357;DHT22;3211;53.452;-2.264;2022-09-16T13:18:38;19.20;91.50
6357;DHT22;3211;53.452;-2.264;2022-09-16T13:21:24;18.80;92.20
6357;DHT22;3211;53.452;-2.264;2022-09-16T13:24:13;17.90;92.10
6357;DHT22;3211;53.452;-2.264;2022-09-16T13:26:56;17.50;91.70
6357;DHT22;3211;53.452;-2.264;2022-09-16T13:29:41;17.20;91.80
6357;DHT22;3211;53.452;-2.264;2022-09-16T13:32:26;17.80;91.80
6357;DHT22;3211;53.452;-2.264;2022-09-16T13:35:23;18.30;91.80
6357;DHT22;3211;53.452;-2.264;2022-09-16T13:38:34;18.80;90.50
6357;DHT22;3211;53.452;-2.264;2022-09-16T13:41:33;18.80;90.00
6357;DHT22;3211;53.452;-2.264;2022-09-16T13:44:28;18.80;89.40
6357;DHT22;3211;53.452;-2.264;2022-09-16T13:47:29;18.60;89.30
6357;DHT22;3211;53.452;-2.264;2022-09-16T13:50:15;19.00;90.00
6357;DHT22;3211;53.452;-2.264;2022-09-16T13:53:08;18.70;90.60
6357;DHT22;3211;53.452;-2.264;2022-09-16T13:55:52;18.30;91.10
6357;DHT22;3211;53.452;-2.264;2022-09-16T13:58:40;18.60;90.80
6357;DHT22;3211;53.452;-2.264;2022-09-16T14:01:32;18.70;90.00
6357;DHT22;3211;53.452;-2.264;2022-09-16T14:04:21;19.10;90.00
6357;DHT22;3211;53.452;-2.264;2022-09-16T14:07:18;19.90;88.30
6357;DHT22;3211;53.452;-2.264;2022-09-16T14:10:09;20.20;87.50
6357;DHT22;3211;53.452;-2.264;2022-09-16T14:13:05;20.40;89.30
6357;DHT22;3211;53.452;-2.264;2022-09-16T14:15:54;19.50;89.00
6357;DHT22;3211;53.452;-2.264;2022-09-16T14:18:41;19.30;90.60
6357;DHT22;3211;53.452;-2.264;2022-09-16T14:21:25;19.20;90.00
6357;DHT22;3211;53.452;-2.264;2022-09-16T14:24:14;18.90;90.00
6357;DHT22;3211;53.452;-2.264;2022-09-16T14:26:57;19.10;90.10
6357;DHT22;3211;53.452;-2.264;2022-09-16T14:29:39;18.60;90.00
6357;DHT22;3211;53.452;-2.264;2022-09-16T14:32:24;19.40;90.30
6357;DHT22;3211;53.452;-2.264;2022-09-16T14:35:09;20.10;86.60
6357;DHT22;3211;53.452;-2.264;2022-09-16T14:37:54;20.60;87.80
6357;DHT22;3211;53.452;-2.264;2022-09-16T14:40:38;20.60;85.00
6357;DHT22;3211;53.452;-2.264;2022-09-16T14:43:21;20.70;85.00
6357;DHT22;3211;53.452;-2.264;2022-09-16T14:46:06;20.80;84.10
6357;DHT22;3211;53.452;-2.264;2022-09-16T14:48:49;20.90;85.50
6357;DHT22;3211;53.452;-2.264;2022-09-16T14:51:32;20.20;85.70
6357;DHT22;3211;53.452;-2.264;2022-09-16T14:54:16;20.30;86.40
6357;DHT22;3211;53.452;-2.264;2022-09-16T14:57:00;21.10;85.00
6357;DHT22;3211;53.452;-2.264;2022-09-16T14:59:43;21.00;85.50
6357;DHT22;3211;53.452;-2.264;2022-09-16T15:02:30;23.10;82.70
6357;DHT22;3211;53.452;-2.264;2022-09-16T15:05:21;25.00;78.60
6357;DHT22;3211;53.452;-2.264;2022-09-16T15:08:09;27.00;76.20
6357;DHT22;3211;53.452;-2.264;2022-09-16T15:10:57;27.10;73.60
6357;DHT22;3211;53.452;-2.264;2022-09-16T15:13:40;28.90;70.90
6357;DHT22;3211;53.452;-2.264;2022-09-16T15:16:24;28.10;68.60
6357;DHT22;3211;53.452;-2.264;2022-09-16T15:19:12;29.30;69.00
6357;DHT22;3211;53.452;-2.264;2022-09-16T15:21:58;27.80;70.20
6357;DHT22;3211;53.452;-2.264;2022-09-16T15:24:41;29.40;68.10
6357;DHT22;3211;53.452;-2.264;2022-09-16T15:27:25;30.10;66.50
6357;DHT22;3211;53.452;-2.264;2022-09-16T15:30:20;26.90;66.20
6357;DHT22;3211;53.452;-2.264;2022-09-16T15:33:20;27.70;67.50
6357;DHT22;3211;53.452;-2.264;2022-09-16T15:36:03;27.90;65.80
6357;DHT22;3211;53.452;-2.264;2022-09-16T15:38:57;24.40;68.10
6357;DHT22;3211;53.452;-2.264;2022-09-16T15:41:39;27.20;66.20
6357;DHT22;3211;53.452;-2.264;2022-09-16T15:44:24;27.30;64.20
6357;DHT22;3211;53.452;-2.264;2022-09-16T15:47:16;28.40;64.90
6357;DHT22;3211;53.452;-2.264;2022-09-16T15:50:02;28.60;63.60
6357;DHT22;3211;53.452;-2.264;2022-09-16T15:52:51;29.20;64.30
6357;DHT22;3211;53.452;-2.264;2022-09-16T15:55:39;30.70;62.50
6357;DHT22;3211;53.452;-2.264;2022-09-16T15:58:32;31.00;62.60
6357;DHT22;3211;53.452;-2.264;2022-09-16T16:01:19;29.90;61.90
6357;DHT22;3211;53.452;-2.264;2022-09-16T16:04:04;29.60;61.80
6357;DHT22;3211;53.452;-2.264;2022-09-16T16:06:51;28.60;61.80
6357;DHT22;3211;53.452;-2.264;2022-09-16T16:09:38;28.50;61.40
6357;DHT22;3211;53.452;-2.264;2022-09-16T16:12:22;27.50;62.10
6357;DHT22;3211;53.452;-2.264;2022-09-16T16:15:05;27.60;62.20
6357;DHT22;3211;53.452;-2.264;2022-09-16T16:17:49;24.10;65.30
6357;DHT22;3211;53.452;-2.264;2022-09-16T16:20:32;25.50;64.30
6357;DHT22;3211;53.452;-2.264;2022-09-16T16:23:14;26.60;64.00
6357;DHT22;3211;53.452;-2.264;2022-09-16T16:25:56;23.30;67.00
6357;DHT22;3211;53.452;-2.264;2022-09-16T16:28:40;20.60;69.40
6357;DHT22;3211;53.452;-2.264;2022-09-16T16:31:22;19.70;71.20
6357;DHT22;3211;53.452;-2.264;2022-09-16T16:34:04;20.00;71.90
6357;DHT22;3211;53.452;-2.264;2022-09-16T16:36:46;19.40;72.90
6357;DHT22;3211;53.452;-2.264;2022-09-16T16:39:28;18.70;72.80
6357;DHT22;3211;53.452;-2.264;2022-09-16T16:42:11;18.50;73.20
6357;DHT22;3211;53.452;-2.264;2022-09-16T16:44:57;18.30;74.10
6357;DHT22;3211;53.452;-2.264;2022-09-16T16:47:39;18.20;74.00
6357;DHT22;3211;53.452;-2.264;2022-09-16T16:50:21;17.70;74.90
6357;DHT22;3211;53.452;-2.264;2022-09-16T16:53:03;17.70;76.70
6357;DHT22;3211;53.452;-2.264;2022-09-16T16:55:46;18.00;76.90
6357;DHT22;3211;53.452;-2.264;2022-09-16T16:58:28;17.90;76.10
6357;DHT22;3211;53.452;-2.264;2022-09-16T17:01:14;18.00;74.60
6357;DHT22;3211;53.452;-2.264;2022-09-16T17:03:56;17.80;75.40
6357;DHT22;3211;53.452;-2.264;2022-09-16T17:06:40;17.60;74.90
6357;DHT22;3211;53.452;-2.264;2022-09-16T17:09:22;17.30;74.90
6357;DHT22;3211;53.452;-2.264;2022-09-16T17:12:05;17.40;76.40
6357;DHT22;3211;53.452;-2.264;2022-09-16T17:14:47;17.10;75.90
6357;DHT22;3211;53.452;-2.264;2022-09-16T17:17:31;17.00;77.10
6357;DHT22;3211;53.452;-2.264;2022-09-16T17:20:13;16.90;76.10
6357;DHT22;3211;53.452;-2.264;2022-09-16T17:22:55;16.60;78.00
6357;DHT22;3211;53.452;-2.264;2022-09-16T17:25:37;16.40;77.90
6357;DHT22;3211;53.452;-2.264;2022-09-16T17:28:19;16.30;79.80
6357;DHT22;3211;53.452;-2.264;2022-09-16T17:31:01;16.40;80.00
6357;DHT22;3211;53.452;-2.264;2022-09-16T17:33:45;16.30;79.80
6357;DHT22;3211;53.452;-2.264;2022-09-16T17:36:27;16.30;80.50
6357;DHT22;3211;53.452;-2.264;2022-09-16T17:39:11;15.90;79.70
6357;DHT22;3211;53.452;-2.264;2022-09-16T17:41:54;15.90;79.90
6357;DHT22;3211;53.452;-2.264;2022-09-16T17:44:38;16.00;80.60
6357;DHT22;3211;53.452;-2.264;2022-09-16T17:47:20;15.90;80.00
6357;DHT22;3211;53.452;-2.264;2022-09-16T17:50:04;15.90;81.10
6357;DHT22;3211;53.452;-2.264;2022-09-16T17:52:46;15.90;82.50
6357;DHT22;3211;53.452;-2.264;2022-09-16T17:55:28;15.90;80.80
6357;DHT22;3211;53.452;-2.264;2022-09-16T17:58:10;15.90;82.10
6357;DHT22;3211;53.452;-2.264;2022-09-16T18:00:52;15.80;83.60
6357;DHT22;3211;53.452;-2.264;2022-09-16T18:03:35;15.80;81.80
6357;DHT22;3211;53.452;-2.264;2022-09-16T18:06:21;15.80;84.60